createdAt,value
2022-09-13T00:02:00.202Z,77.29
2022-09-13T00:05:02.344Z,76.62
2022-09-13T00:08:05.726Z,76.75
2022-09-13T00:11:14.988Z,75.54
2022-09-13T00:14:17.738Z,74.17
2022-09-13T00:17:20.593Z,75.58
2022-09-13T00:20:25.363Z,76.27
2022-09-13T00:23:27.509Z,78.39
2022-09-13T00:26:30.082Z,76.95
2022-09-13T00:29:34.061Z,75.73
2022-09-13T00:32:38.490Z,74.49
2022-09-13T00:35:40.789Z,72.94
2022-09-13T00:38:44.215Z,71.64
2022-09-13T00:41:47.009Z,71.40
2022-09-13T00:44:52.303Z,73.23
2022-09-13T00:47:58.073Z,73.99
2022-09-13T00:51:02.647Z,73.73
2022-09-13T00:54:05.342Z,71.53
2022-09-13T00:57:11.429Z,70.59
2022-09-13T01:00:17.474Z,70.55
2022-09-13T01:03:23.115Z,69.89
2022-09-13T01:06:29.728Z,69.24
2022-09-13T01:09:33.576Z,68.71
2022-09-13T01:12:51.767Z,68.18
2022-09-13T01:15:54.451Z,67.84
2022-09-13T01:18:56.425Z,67.66
2022-09-13T01:22:08.334Z,67.35
2022-09-13T01:25:39.071Z,67.16
2022-09-13T01:29:10.029Z,67.04
2022-09-13T01:32:14.982Z,66.95
2022-09-13T01:35:20.989Z,66.83
2022-09-13T01:38:45.160Z,66.77
2022-09-13T01:42:05.256Z,66.62
2022-09-13T01:45:48.217Z,66.60
2022-09-13T01:49:28.094Z,66.46
2022-09-13T01:52:36.967Z,66.46
2022-09-13T01:55:45.892Z,66.52
2022-09-13T01:59:09.923Z,66.49
2022-09-13T02:02:37.130Z,66.47
2022-09-13T02:05:52.113Z,66.51
2022-09-13T02:09:02.254Z,66.50
2022-09-13T02:12:11.294Z,66.49
2022-09-13T02:15:20.371Z,66.52
2022-09-13T02:18:30.139Z,66.48
2022-09-13T02:21:39.389Z,66.33
2022-09-13T02:24:49.039Z,66.40
2022-09-13T02:27:59.134Z,66.40
2022-09-13T02:31:02.277Z,66.35
2022-09-13T02:34:10.465Z,66.34
2022-09-13T02:37:13.516Z,66.36
2022-09-13T02:40:23.143Z,66.33
2022-09-13T02:43:43.340Z,66.37
2022-09-13T02:47:17.065Z,66.42
2022-09-13T02:50:31.520Z,66.45
2022-09-13T02:54:02.037Z,66.40
2022-09-13T02:57:13.588Z,66.48
2022-09-13T03:00:17.665Z,66.49
2022-09-13T03:03:19.769Z,66.51
2022-09-13T03:06:27.147Z,66.56
2022-09-13T03:09:29.328Z,66.58
2022-09-13T03:12:34.971Z,66.60
2022-09-13T03:15:40.223Z,66.55
2022-09-13T03:19:24.543Z,66.56
2022-09-13T03:22:45.180Z,66.54
2022-09-13T03:26:00.007Z,66.49
2022-09-13T03:29:04.825Z,66.52
2022-09-13T03:32:31.707Z,66.54
2022-09-13T03:35:43.364Z,66.54
2022-09-13T03:38:57.067Z,66.57
2022-09-13T03:42:06.381Z,66.62
2022-09-13T03:45:10.528Z,66.59
2022-09-13T03:48:13.683Z,66.59
2022-09-13T03:51:16.748Z,66.61
2022-09-13T03:54:25.659Z,66.68
2022-09-13T03:57:28.620Z,66.67
2022-09-13T04:00:30.590Z,66.70
2022-09-13T04:03:33.470Z,66.74
2022-09-13T04:06:35.511Z,66.72
2022-09-13T04:09:38.019Z,66.70
2022-09-13T04:12:41.486Z,66.75
2022-09-13T04:15:44.463Z,66.78
2022-09-13T04:18:46.889Z,66.73
2022-09-13T04:21:51.039Z,66.75
2022-09-13T04:24:53.769Z,66.78
2022-09-13T04:27:58.282Z,66.79
2022-09-13T04:31:00.447Z,66.80
2022-09-13T04:34:03.670Z,66.82
2022-09-13T04:37:05.839Z,66.80
2022-09-13T04:40:09.351Z,66.85
2022-09-13T04:43:12.190Z,66.82
2022-09-13T04:46:14.989Z,66.86
2022-09-13T04:49:20.671Z,66.87
2022-09-13T04:52:23.166Z,66.85
2022-09-13T04:55:26.355Z,66.88
2022-09-13T04:58:29.287Z,67.79
2022-09-13T05:01:31.343Z,71.77
2022-09-13T05:04:33.693Z,75.99
2022-09-13T05:07:36.081Z,79.86
2022-09-13T05:10:38.358Z,82.65
2022-09-13T05:13:40.891Z,83.94
2022-09-13T05:16:43.328Z,84.62
2022-09-13T05:19:45.470Z,85.17
2022-09-13T05:22:49.323Z,85.55
2022-09-13T05:25:59.572Z,86.24
2022-09-13T05:29:04.924Z,86.90
2022-09-13T05:32:07.154Z,87.16
2022-09-13T05:35:09.878Z,87.26
2022-09-13T05:38:12.119Z,86.19
2022-09-13T05:41:14.803Z,86.33
2022-09-13T05:44:18.156Z,85.53
2022-09-13T05:47:20.532Z,85.17
2022-09-13T05:50:45.033Z,84.86
2022-09-13T05:53:47.850Z,84.51
2022-09-13T05:56:53.035Z,84.23
2022-09-13T05:59:55.368Z,84.03
2022-09-13T06:02:58.276Z,84.26
2022-09-13T06:06:01.125Z,84.40
2022-09-13T06:09:03.629Z,84.36
2022-09-13T06:12:06.119Z,84.41
2022-09-13T06:15:09.589Z,84.13
2022-09-13T06:18:13.660Z,83.48
2022-09-13T06:21:19.585Z,83.32
2022-09-13T06:24:23.863Z,83.05
2022-09-13T06:27:26.154Z,83.72
2022-09-13T06:30:29.862Z,83.19
2022-09-13T06:33:34.144Z,82.87
2022-09-13T06:36:36.600Z,82.68
2022-09-13T06:39:38.798Z,82.16
2022-09-13T06:42:42.070Z,81.89
2022-09-13T06:45:44.333Z,82.03
2022-09-13T06:48:46.995Z,82.26
2022-09-13T06:51:49.161Z,82.51
2022-09-13T06:54:51.659Z,82.19
2022-09-13T06:57:53.946Z,82.74
2022-09-13T07:01:13.650Z,82.34
2022-09-13T07:04:19.880Z,82.14
2022-09-13T07:07:23.723Z,81.45
2022-09-13T07:10:26.428Z,81.60
2022-09-13T07:13:29.109Z,81.65
2022-09-13T07:16:33.190Z,82.27
2022-09-13T07:19:35.482Z,82.11
2022-09-13T07:22:37.853Z,81.97
2022-09-13T07:25:40.358Z,81.55
2022-09-13T07:28:46.167Z,80.79
2022-09-13T07:31:52.692Z,80.99
2022-09-13T07:34:55.469Z,80.63
2022-09-13T07:37:57.918Z,81.06
2022-09-13T07:41:00.182Z,81.34
2022-09-13T07:44:04.842Z,81.40
2022-09-13T07:47:07.118Z,81.53
2022-09-13T07:50:10.001Z,81.96
2022-09-13T07:53:12.459Z,81.49
2022-09-13T07:56:20.923Z,80.83
2022-09-13T07:59:30.218Z,80.77
2022-09-13T08:02:34.312Z,80.71
2022-09-13T08:05:40.037Z,80.09
2022-09-13T08:08:42.656Z,80.19
2022-09-13T08:11:49.719Z,80.06
2022-09-13T08:14:51.932Z,78.98
2022-09-13T08:17:57.091Z,79.21
2022-09-13T08:21:01.156Z,79.17
2022-09-13T08:24:04.554Z,79.88
2022-09-13T08:27:07.242Z,79.82
2022-09-13T08:30:10.545Z,79.59
2022-09-13T08:33:13.960Z,78.86
2022-09-13T08:36:17.277Z,77.17
2022-09-13T08:39:19.945Z,76.75
2022-09-13T08:42:38.986Z,76.84
2022-09-13T08:45:42.798Z,77.98
2022-09-13T08:48:49.206Z,76.68
2022-09-13T08:51:59.642Z,76.03
2022-09-13T08:55:12.674Z,76.12
2022-09-13T08:58:36.412Z,75.09
2022-09-13T09:02:21.350Z,76.16
2022-09-13T09:05:27.477Z,75.15
2022-09-13T09:08:32.345Z,74.55
2022-09-13T09:11:59.777Z,74.16
2022-09-13T09:15:16.977Z,74.08
2022-09-13T09:18:23.615Z,75.04
2022-09-13T09:21:26.696Z,74.22
2022-09-13T09:24:32.834Z,74.22
2022-09-13T09:27:35.004Z,73.19
2022-09-13T09:30:46.391Z,72.51
2022-09-13T09:34:01.388Z,72.62
2022-09-13T09:37:22.572Z,72.58
2022-09-13T09:40:28.522Z,72.30
2022-09-13T09:43:43.034Z,72.33
2022-09-13T09:46:52.183Z,72.38
2022-09-13T09:50:11.205Z,71.92
2022-09-13T09:53:21.005Z,70.21
2022-09-13T09:56:31.073Z,69.73
2022-09-13T09:59:34.213Z,68.24
2022-09-13T10:02:44.368Z,69.60
2022-09-13T10:05:47.830Z,68.42
2022-09-13T10:09:07.807Z,68.62
2022-09-13T10:12:10.592Z,68.48
2022-09-13T10:15:20.077Z,69.65
2022-09-13T10:22:01.557Z,68.57
2022-09-13T10:25:23.759Z,67.45
2022-09-13T10:28:27.433Z,68.25
2022-09-13T10:31:36.903Z,65.59
2022-09-13T10:34:45.249Z,65.91
2022-09-13T10:37:47.721Z,65.49
2022-09-13T10:40:50.399Z,66.11
2022-09-13T10:44:00.916Z,65.67
2022-09-13T10:47:08.263Z,64.61
2022-09-13T10:50:20.586Z,63.82
2022-09-13T10:53:41.913Z,65.32
2022-09-13T10:56:45.752Z,65.18
2022-09-13T10:59:53.742Z,65.27
2022-09-13T11:03:05.343Z,64.03
2022-09-13T11:06:35.037Z,63.77
2022-09-13T11:10:02.516Z,63.77
2022-09-13T11:13:27.033Z,63.40
2022-09-13T11:17:20.476Z,63.52
2022-09-13T11:20:31.874Z,63.22
2022-09-13T11:24:05.067Z,63.06
2022-09-13T11:27:30.259Z,62.68
2022-09-13T11:30:41.345Z,63.08
2022-09-13T11:33:58.757Z,62.94
2022-09-13T11:37:30.600Z,61.52
2022-09-13T11:40:58.846Z,60.13
2022-09-13T11:44:19.681Z,61.61
2022-09-13T11:47:35.137Z,62.40
2022-09-13T11:50:59.214Z,62.70
2022-09-13T11:54:35.116Z,60.83
2022-09-13T11:57:44.371Z,60.39
2022-09-13T12:00:53.184Z,61.33
2022-09-13T12:04:04.580Z,58.77
2022-09-13T12:07:19.503Z,59.30
2022-09-13T12:10:29.173Z,58.16
2022-09-13T12:13:42.521Z,57.73
2022-09-13T12:16:51.660Z,57.26
2022-09-13T12:19:58.128Z,56.84
2022-09-13T12:23:03.758Z,60.37
2022-09-13T12:26:26.952Z,60.06
2022-09-13T12:29:51.089Z,59.60
2022-09-13T12:32:58.693Z,59.00
2022-09-13T12:36:29.103Z,59.53
2022-09-13T12:39:49.571Z,60.49
2022-09-13T12:42:58.184Z,60.89
2022-09-13T12:46:28.605Z,60.79
2022-09-13T12:49:53.057Z,61.17
2022-09-13T12:53:14.009Z,59.11
2022-09-13T12:56:42.800Z,60.26
2022-09-13T13:00:04.203Z,59.56
2022-09-13T13:03:16.307Z,59.22
2022-09-13T13:06:35.902Z,58.85
2022-09-13T13:09:45.294Z,58.34
2022-09-13T13:12:48.393Z,60.42
2022-09-13T13:15:51.776Z,58.97
2022-09-13T13:19:23.389Z,58.34
2022-09-13T13:22:44.524Z,59.11
2022-09-13T13:26:22.582Z,59.89
2022-09-13T13:29:30.256Z,58.74
2022-09-13T13:32:32.907Z,58.13
2022-09-13T13:35:35.321Z,59.18
2022-09-13T13:38:46.857Z,58.61
2022-09-13T13:41:57.832Z,58.49
2022-09-13T13:45:00.463Z,58.44
2022-09-13T13:48:37.235Z,57.20
2022-09-13T13:51:39.750Z,58.53
2022-09-13T13:54:42.413Z,59.25
2022-09-13T13:58:00.899Z,60.65
2022-09-13T14:01:06.179Z,61.15
2022-09-13T14:04:29.640Z,62.60
2022-09-13T14:07:50.480Z,60.89
2022-09-13T14:11:12.082Z,59.58
2022-09-13T14:14:49.129Z,59.07
2022-09-13T14:18:38.087Z,59.41
2022-09-13T14:21:41.141Z,61.92
2022-09-13T14:24:49.622Z,61.47
2022-09-13T14:27:59.766Z,61.78
2022-09-13T14:31:03.830Z,60.29
2022-09-13T14:34:06.682Z,61.40
2022-09-13T14:37:19.902Z,61.41
2022-09-13T14:40:27.145Z,59.48
2022-09-13T14:43:31.994Z,58.50
2022-09-13T14:46:42.242Z,59.09
2022-09-13T14:49:52.330Z,57.93
2022-09-13T14:53:04.535Z,58.25
2022-09-13T14:56:14.202Z,58.47
2022-09-13T14:59:32.821Z,57.89
2022-09-13T15:02:40.803Z,56.51
2022-09-13T15:05:54.528Z,57.40
2022-09-13T15:09:14.369Z,57.61
2022-09-13T15:12:28.485Z,57.23
2022-09-13T15:15:41.871Z,57.06
2022-09-13T15:18:47.178Z,55.50
2022-09-13T15:21:54.288Z,57.77
2022-09-13T15:25:02.076Z,57.33
2022-09-13T15:28:05.250Z,58.50
2022-09-13T15:31:08.867Z,56.32
2022-09-13T15:34:18.945Z,56.19
2022-09-13T15:37:32.545Z,57.66
2022-09-13T15:40:44.320Z,58.54
2022-09-13T15:43:50.837Z,59.19
2022-09-13T15:46:57.154Z,60.35
2022-09-13T15:50:00.182Z,61.37
2022-09-13T15:53:11.833Z,60.40
2022-09-13T15:56:19.333Z,59.86
2022-09-13T15:59:24.955Z,59.50
2022-09-13T16:02:34.242Z,59.75
2022-09-13T16:05:39.473Z,59.26
2022-09-13T16:08:42.023Z,57.31
2022-09-13T16:11:44.658Z,58.47
2022-09-13T16:14:48.063Z,59.27
2022-09-13T16:17:51.395Z,59.52
2022-09-13T16:20:55.399Z,59.43
2022-09-13T16:23:59.433Z,59.34
2022-09-13T16:27:02.411Z,59.43
2022-09-13T16:30:06.584Z,59.01
2022-09-13T16:33:09.515Z,61.96
2022-09-13T16:36:13.406Z,62.00
2022-09-13T16:39:16.850Z,61.21
2022-09-13T16:42:21.663Z,60.84
2022-09-13T16:45:26.767Z,60.98
2022-09-13T16:48:32.670Z,61.26
2022-09-13T16:51:35.641Z,60.12
2022-09-13T16:54:39.463Z,59.89
2022-09-13T16:57:42.581Z,60.52
2022-09-13T17:00:45.338Z,60.97
2022-09-13T17:03:54.818Z,61.51
2022-09-13T17:06:58.606Z,61.20
2022-09-13T17:10:01.015Z,62.06
2022-09-13T17:13:06.497Z,62.10
2022-09-13T17:16:33.423Z,61.54
2022-09-13T17:19:37.239Z,62.81
2022-09-13T17:22:41.348Z,62.28
2022-09-13T17:25:47.917Z,61.02
2022-09-13T17:28:50.404Z,61.93
2022-09-13T17:31:53.921Z,62.95
2022-09-13T17:34:57.874Z,64.55
2022-09-13T17:38:02.952Z,65.16
2022-09-13T17:41:17.223Z,65.30
2022-09-13T17:44:19.834Z,66.52
2022-09-13T17:47:24.540Z,66.65
2022-09-13T17:50:27.917Z,66.36
2022-09-13T17:53:32.447Z,66.61
2022-09-13T17:56:41.226Z,66.03
2022-09-13T17:59:45.673Z,66.74
2022-09-13T18:02:49.305Z,65.63
2022-09-13T18:05:56.450Z,66.51
2022-09-13T18:09:00.106Z,65.69
2022-09-13T18:12:02.783Z,66.77
2022-09-13T18:15:06.276Z,67.90
2022-09-13T18:18:09.296Z,67.36
2022-09-13T18:21:18.719Z,68.42
2022-09-13T18:24:21.440Z,69.40
2022-09-13T18:27:25.214Z,69.59
2022-09-13T18:30:28.590Z,70.09
2022-09-13T18:33:34.116Z,70.16
2022-09-13T18:36:37.936Z,69.44
2022-09-13T18:39:45.155Z,69.09
2022-09-13T18:42:53.253Z,68.62
2022-09-13T18:46:10.841Z,70.29
2022-09-13T18:49:14.128Z,70.29
2022-09-13T18:52:18.645Z,70.25
2022-09-13T18:55:37.103Z,71.34
2022-09-13T18:58:45.445Z,71.69
2022-09-13T19:01:49.063Z,70.03
2022-09-13T19:04:55.835Z,70.80
2022-09-13T19:08:03.665Z,68.08
2022-09-13T19:11:23.826Z,67.64
2022-09-13T19:14:34.747Z,68.36
2022-09-13T19:17:42.187Z,69.28
2022-09-13T19:20:47.974Z,70.44
2022-09-13T19:24:00.005Z,70.54
2022-09-13T19:27:15.519Z,71.41
2022-09-13T19:30:24.596Z,71.73
2022-09-13T19:33:34.143Z,72.00
2022-09-13T19:36:45.603Z,71.48
2022-09-13T19:39:55.189Z,71.18
2022-09-13T19:43:03.750Z,71.24
2022-09-13T19:46:13.271Z,70.98
2022-09-13T19:49:21.156Z,71.10
2022-09-13T19:52:25.983Z,70.17
2022-09-13T19:55:34.209Z,69.19
2022-09-13T19:58:39.238Z,69.46
2022-09-13T20:01:46.926Z,68.20
2022-09-13T20:04:51.989Z,67.91
2022-09-13T20:07:59.796Z,68.83
2022-09-13T20:11:09.766Z,68.15
2022-09-13T20:14:14.805Z,68.45
2022-09-13T20:17:17.957Z,68.18
2022-09-13T20:20:25.143Z,67.61
2022-09-13T20:23:30.234Z,68.17
2022-09-13T20:26:39.452Z,68.09
2022-09-13T20:29:44.118Z,68.71
2022-09-13T20:32:56.256Z,68.83
2022-09-13T20:36:12.635Z,68.96
2022-09-13T20:39:19.812Z,68.95
2022-09-13T20:42:24.839Z,68.90
2022-09-13T20:45:29.977Z,70.57
2022-09-13T20:48:35.841Z,70.09
2022-09-13T20:51:40.479Z,68.89
2022-09-13T20:54:42.733Z,68.04
2022-09-13T20:57:48.406Z,67.33
2022-09-13T21:00:51.241Z,66.76
2022-09-13T21:03:55.394Z,66.45
2022-09-13T21:07:16.702Z,66.16
2022-09-13T21:10:19.292Z,65.86
2022-09-13T21:13:22.476Z,66.47
2022-09-13T21:16:27.643Z,65.34
2022-09-13T21:19:30.103Z,65.84
2022-09-13T21:22:33.457Z,66.59
2022-09-13T21:25:38.777Z,68.05
2022-09-13T21:28:45.911Z,68.01
2022-09-13T21:31:48.522Z,65.42
2022-09-13T21:34:51.225Z,67.76
2022-09-13T21:37:54.670Z,68.03
2022-09-13T21:40:59.420Z,68.77
2022-09-13T21:44:02.337Z,69.60
2022-09-13T21:47:05.406Z,69.69
2022-09-13T21:50:08.669Z,71.12
2022-09-13T21:53:11.256Z,71.58
2022-09-13T21:56:21.329Z,72.76
2022-09-13T21:59:24.901Z,71.15
2022-09-13T22:02:28.465Z,70.58
2022-09-13T22:05:32.346Z,69.07
2022-09-13T22:08:40.810Z,68.84
2022-09-13T22:11:46.354Z,68.59
2022-09-13T22:14:48.915Z,67.79
2022-09-13T22:17:52.041Z,67.86
2022-09-13T22:20:54.461Z,64.32
2022-09-13T22:23:57.391Z,65.34
2022-09-13T22:27:00.351Z,69.19
2022-09-13T22:30:06.209Z,66.07
2022-09-13T22:33:08.368Z,67.96
2022-09-13T22:36:13.685Z,69.64
2022-09-13T22:39:17.087Z,68.58
2022-09-13T22:42:20.443Z,67.88
2022-09-13T22:45:22.791Z,66.13
2022-09-13T22:48:25.422Z,66.33
2022-09-13T22:51:28.727Z,68.82
2022-09-13T22:54:31.217Z,68.95
2022-09-13T22:57:33.608Z,68.68
2022-09-13T23:00:36.233Z,69.94
2022-09-13T23:03:41.045Z,70.35
2022-09-13T23:06:44.640Z,71.23
2022-09-13T23:09:47.208Z,72.04
2022-09-13T23:12:49.917Z,72.91
2022-09-13T23:15:52.345Z,72.38
2022-09-13T23:18:57.456Z,72.66
2022-09-13T23:21:59.602Z,72.23
2022-09-13T23:25:02.391Z,71.65
2022-09-13T23:28:04.890Z,72.60
2022-09-13T23:31:34.296Z,72.77
2022-09-13T23:34:38.078Z,73.12
2022-09-13T23:37:40.426Z,72.42
2022-09-13T23:40:43.042Z,71.76
2022-09-13T23:43:45.754Z,72.31
2022-09-13T23:46:48.245Z,72.49
2022-09-13T23:49:51.036Z,71.61
2022-09-13T23:52:53.274Z,72.39
2022-09-13T23:55:56.789Z,72.28
2022-09-13T23:59:01.046Z,72.11
